Time;durP1;ratioP1;P1;durP2;ratioP2;P2;SDS_P1;SDS_P2;PMS_P1;PMS_P2;Temp;Humidity;BMP_temperature;BMP_pressure;BME280_temperature;BME280_humidity;BME280_pressure;Samples;Min_cycle;Max_cycle;Signal;HPM_P1;HPM_P2
2022/04/22 00:02:23;;;;;;;6.90;5.10;;;11.70;88.50;;;;;;5093493;28;20223;-83
2022/04/22 00:04:48;;;;;;;6.00;5.43;;;11.80;88.40;;;;;;5093372;28;20199;-83
2022/04/22 00:07:14;;;;;;;6.13;5.67;;;11.80;88.50;;;;;;5093315;28;20637;-83
2022/04/22 00:09:40;;;;;;;5.70;5.30;;;11.80;88.70;;;;;;5075498;28;20168;-83
2022/04/22 00:12:06;;;;;;;6.33;5.83;;;11.80;88.70;;;;;;5093177;28;20229;-83
2022/04/22 00:14:32;;;;;;;6.63;6.03;;;11.80;88.80;;;;;;5093548;28;20259;-83
2022/04/22 00:16:58;;;;;;;5.60;5.20;;;11.80;88.90;;;;;;5093299;28;20244;-83
2022/04/22 00:19:24;;;;;;;6.43;5.33;;;11.80;88.90;;;;;;5093374;28;20229;-83
2022/04/22 00:21:49;;;;;;;6.03;5.63;;;11.80;89.00;;;;;;5093364;28;20172;-83
2022/04/22 00:24:16;;;;;;;7.20;5.47;;;11.80;88.80;;;;;;5093450;28;20177;-83
2022/04/22 00:26:42;;;;;;;5.87;5.33;;;11.80;89.00;;;;;;5093128;28;20286;-83
2022/04/22 00:29:08;;;;;;;5.67;5.27;;;11.80;89.40;;;;;;5093200;28;20248;-83
2022/04/22 00:31:34;;;;;;;6.10;5.50;;;11.70;89.60;;;;;;5093581;28;20597;-83
2022/04/22 00:34:00;;;;;;;5.53;5.13;;;11.70;89.80;;;;;;5093539;28;20177;-83
2022/04/22 00:36:26;;;;;;;6.30;5.80;;;11.70;90.00;;;;;;5093467;28;20176;-83
2022/04/22 00:38:51;;;;;;;9.17;5.60;;;11.80;90.00;;;;;;5093164;28;20182;-83
2022/04/22 00:41:18;;;;;;;5.53;5.13;;;11.70;90.20;;;;;;5093195;28;20592;-83
2022/04/22 00:43:48;;;;;;;5.90;5.47;;;11.80;90.30;;;;;;5093901;28;20173;-83
2022/04/22 00:46:14;;;;;;;6.53;5.30;;;11.80;90.30;;;;;;5077127;28;20231;-83
2022/04/22 00:48:40;;;;;;;5.73;5.33;;;11.80;90.30;;;;;;5097267;28;20171;-83
2022/04/22 00:51:07;;;;;;;5.73;5.00;;;11.80;90.40;;;;;;5093678;28;20174;-83
2022/04/22 00:53:39;;;;;;;5.20;4.90;;;11.80;90.50;;;;;;5096960;28;20251;-82
2022/04/22 00:56:07;;;;;;;5.30;4.90;;;11.80;90.50;;;;;;5078681;28;20176;-83
2022/04/22 00:58:36;;;;;;;5.73;5.20;;;11.80;90.60;;;;;;5096873;28;20557;-83
2022/04/22 01:01:02;;;;;;;5.60;5.23;;;11.80;90.70;;;;;;5096510;28;20225;-83
2022/04/22 01:03:28;;;;;;;7.10;5.00;;;11.80;90.80;;;;;;5096532;28;20184;-83
2022/04/22 01:11:27;;;;;;;5.07;4.67;;;11.80;92.50;;;;;;5096578;28;20317;-82
2022/04/22 01:13:54;;;;;;;5.00;4.60;;;11.80;93.00;;;;;;5096310;28;20554;-82
2022/04/22 01:16:19;;;;;;;5.30;4.90;;;11.80;93.40;;;;;;5096315;28;20173;-82
2022/04/22 01:18:45;;;;;;;5.50;5.00;;;11.80;93.90;;;;;;5096250;28;20191;-82
2022/04/22 01:21:11;;;;;;;5.20;4.70;;;11.70;94.30;;;;;;5077956;28;20178;-82
2022/04/22 01:23:37;;;;;;;5.27;4.87;;;11.70;95.30;;;;;;5096178;28;20537;-83
2022/04/22 01:26:04;;;;;;;5.07;4.77;;;11.50;95.00;;;;;;5096566;28;20202;-83
2022/04/22 01:28:31;;;;;;;5.47;5.07;;;11.50;94.90;;;;;;5095972;28;20165;-82
2022/04/22 01:31:00;;;;;;;6.07;5.57;;;11.50;95.30;;;;;;5095939;28;20578;-82
2022/04/22 01:33:25;;;;;;;5.80;5.13;;;11.40;95.60;;;;;;5096000;28;20248;-82
2022/04/22 01:35:51;;;;;;;6.03;5.60;;;11.30;96.10;;;;;;5096210;28;20563;-82
2022/04/22 01:38:17;;;;;;;5.97;5.30;;;11.30;96.40;;;;;;5095872;28;20206;-82
2022/04/22 01:40:43;;;;;;;6.30;5.80;;;11.30;96.50;;;;;;5077623;28;20179;-83
2022/04/22 01:43:09;;;;;;;7.60;5.47;;;11.30;97.00;;;;;;5096680;28;20170;-82
2022/04/22 01:45:35;;;;;;;6.43;5.60;;;11.20;97.10;;;;;;5096121;28;20787;-83
2022/04/22 01:48:01;;;;;;;5.90;5.40;;;11.20;97.60;;;;;;5096092;28;20212;-83
2022/04/22 01:50:26;;;;;;;6.83;5.80;;;11.20;97.70;;;;;;5095815;28;20254;-83
2022/04/22 01:52:53;;;;;;;6.17;5.63;;;11.10;98.00;;;;;;5095717;28;20629;-83
2022/04/22 01:55:19;;;;;;;6.50;5.83;;;11.00;98.60;;;;;;5095632;28;20207;-83
2022/04/22 01:57:45;;;;;;;5.47;5.10;;;11.00;98.90;;;;;;5095428;28;20180;-83
2022/04/22 02:00:11;;;;;;;6.03;5.53;;;11.00;99.30;;;;;;5095482;28;20258;-83
2022/04/22 02:02:37;;;;;;;6.50;6.00;;;11.00;99.90;;;;;;5095595;28;20173;-83
2022/04/22 02:05:05;;;;;;;6.23;5.60;;;11.00;99.90;;;;;;5095220;28;20206;-83
2022/04/22 02:07:30;;;;;;;6.30;5.80;;;11.00;99.90;;;;;;5095377;28;20168;-83
2022/04/22 02:09:56;;;;;;;5.80;5.40;;;11.00;99.90;;;;;;5095292;28;20629;-82
2022/04/22 02:12:22;;;;;;;6.37;5.87;;;11.00;99.90;;;;;;5095035;28;20217;-83
2022/04/22 02:14:48;;;;;;;7.17;6.57;;;11.00;99.80;;;;;;5095062;28;20169;-83
2022/04/22 02:17:14;;;;;;;6.70;6.20;;;10.90;99.60;;;;;;5095059;28;20275;-83
2022/04/22 02:19:40;;;;;;;7.47;6.77;;;10.90;99.90;;;;;;5095101;28;20178;-83
2022/04/22 02:22:07;;;;;;;7.13;6.53;;;10.90;99.90;;;;;;5095205;28;20171;-83
2022/04/22 02:24:32;;;;;;;6.90;6.30;;;10.60;99.90;;;;;;5094870;28;20626;-83
2022/04/22 02:29:42;;;;;;;7.40;6.70;;;10.70;99.90;;;;;;5094929;28;20170;-83
2022/04/22 02:32:09;;;;;;;7.03;6.37;;;10.60;99.90;;;;;;5076625;28;20185;-83
2022/04/22 02:34:34;;;;;;;7.00;6.40;;;10.50;99.90;;;;;;5095008;28;20167;-83
2022/04/22 02:37:00;;;;;;;6.97;6.37;;;10.50;99.90;;;;;;5094745;28;20169;-83
2022/04/22 02:39:26;;;;;;;7.57;6.87;;;10.50;99.90;;;;;;5094895;28;20620;-83
2022/04/22 02:47:20;;;;;;;7.20;6.70;;;10.40;99.90;;;;;;5094813;28;20231;-82
2022/04/22 02:49:46;;;;;;;7.93;7.27;;;10.20;99.90;;;;;;5094411;28;20620;-83
2022/04/22 02:52:12;;;;;;;8.17;7.40;;;10.20;99.90;;;;;;5076391;28;20180;-83
2022/04/22 02:54:38;;;;;;;7.63;6.87;;;10.20;99.90;;;;;;5094315;28;20637;-83
2022/04/22 02:57:05;;;;;;;8.17;7.30;;;10.20;99.90;;;;;;5094685;28;20216;-83
2022/04/22 02:59:31;;;;;;;7.53;6.83;;;10.20;99.90;;;;;;5094739;28;20183;-84
2022/04/22 03:01:57;;;;;;;7.50;6.80;;;10.20;99.90;;;;;;5094355;28;20164;-83
2022/04/22 03:04:25;;;;;;;8.23;7.43;;;10.20;99.90;;;;;;5094367;28;20211;-83
2022/04/22 03:06:51;;;;;;;7.97;7.27;;;10.20;99.90;;;;;;5094077;28;20245;-84
2022/04/22 03:09:16;;;;;;;8.23;7.47;;;10.20;99.90;;;;;;5094157;28;20256;-83
2022/04/22 03:11:42;;;;;;;7.63;6.93;;;10.20;99.90;;;;;;5093889;28;20217;-84
2022/04/22 03:14:08;;;;;;;7.53;6.73;;;10.30;99.90;;;;;;5093753;28;20606;-83
2022/04/22 03:16:37;;;;;;;7.53;6.93;;;10.30;99.90;;;;;;5094025;28;20660;-84
2022/04/22 03:19:03;;;;;;;8.20;7.50;;;10.30;99.90;;;;;;5094049;28;20225;-84
2022/04/22 03:21:29;;;;;;;7.70;7.10;;;10.30;99.90;;;;;;5093989;28;20723;-84
2022/04/22 03:23:57;;;;;;;7.63;6.87;;;10.40;99.90;;;;;;5094526;28;20185;-83
2022/04/22 03:26:24;;;;;;;7.57;6.87;;;10.30;99.90;;;;;;5095045;28;20205;-84
2022/04/22 03:28:52;;;;;;;7.83;7.23;;;10.20;99.90;;;;;;5093772;28;20173;-84
2022/04/22 03:31:18;;;;;;;8.33;7.47;;;10.10;99.90;;;;;;5093740;28;20196;-83
2022/04/22 03:33:44;;;;;;;7.97;7.30;;;10.20;99.90;;;;;;5093663;28;20223;-84
2022/04/22 03:36:09;;;;;;;7.60;7.07;;;10.10;99.90;;;;;;5093751;28;20177;-83
2022/04/22 03:38:35;;;;;;;8.47;7.47;;;10.10;99.90;;;;;;5093667;28;20219;-83
2022/04/22 03:41:02;;;;;;;8.37;7.67;;;10.00;99.90;;;;;;5093856;28;20179;-83
2022/04/22 03:43:28;;;;;;;8.67;7.87;;;10.00;99.90;;;;;;5093615;28;20174;-84
2022/04/22 03:45:53;;;;;;;8.30;7.60;;;10.10;99.90;;;;;;5094204;28;20213;-84
2022/04/22 03:48:20;;;;;;;8.60;7.80;;;10.00;99.90;;;;;;5094090;28;20177;-83
2022/04/22 03:50:46;;;;;;;8.17;7.57;;;10.00;99.90;;;;;;5093476;28;20196;-83
2022/04/22 03:53:12;;;;;;;8.20;7.40;;;10.00;99.90;;;;;;5093895;28;20168;-83
2022/04/22 03:55:40;;;;;;;8.83;8.03;;;10.00;99.90;;;;;;5093464;28;20168;-84
2022/04/22 03:58:12;;;;;;;7.80;7.07;;;10.00;99.90;;;;;;5093507;28;20181;-83
2022/04/22 04:00:42;;;;;;;8.67;7.83;;;9.90;99.90;;;;;;5093379;28;20239;-83
2022/04/22 04:03:11;;;;;;;8.00;7.40;;;10.00;99.90;;;;;;5096025;28;20608;-84
2022/04/22 04:05:39;;;;;;;8.23;7.53;;;10.00;99.90;;;;;;5093627;28;20565;-84
2022/04/22 04:08:06;;;;;;;8.27;7.57;;;10.00;99.90;;;;;;5094574;28;20655;-84
2022/04/22 04:16:01;;;;;;;8.93;8.13;;;10.20;99.90;;;;;;5093314;28;20174;-82
2022/04/22 04:18:38;;;;;;;8.73;7.40;;;10.10;99.90;;;;;;5093621;28;20169;-83
2022/04/22 04:23:51;;;;;;;8.03;7.33;;;10.30;99.90;;;;;;5093668;28;20178;-84
2022/04/22 04:26:21;;;;;;;8.37;7.60;;;10.20;99.90;;;;;;5093615;28;20209;-83
2022/04/22 04:28:48;;;;;;;8.00;7.40;;;10.20;99.90;;;;;;5079191;28;20536;-84
2022/04/22 04:31:15;;;;;;;9.23;8.03;;;10.20;99.90;;;;;;5097745;28;20171;-83
2022/04/22 04:33:42;;;;;;;9.27;8.37;;;10.20;99.90;;;;;;5097259;28;20245;-83
2022/04/22 04:36:11;;;;;;;8.27;7.43;;;10.30;99.90;;;;;;5096997;28;20170;-83
2022/04/22 04:38:38;;;;;;;8.57;7.77;;;10.30;99.90;;;;;;5097547;28;20589;-83
2022/04/22 04:41:07;;;;;;;8.47;7.67;;;10.30;99.90;;;;;;5091034;28;20178;-83
2022/04/22 04:43:40;;;;;;;8.13;7.40;;;10.30;99.90;;;;;;5075582;28;20613;-83
2022/04/22 04:46:06;;;;;;;8.00;7.27;;;10.40;99.90;;;;;;5076186;28;20213;-83
2022/04/22 04:48:33;;;;;;;8.30;7.53;;;10.40;99.90;;;;;;5075968;28;20164;-82
2022/04/22 04:51:00;;;;;;;8.80;7.70;;;10.30;99.90;;;;;;5075915;28;20542;-83
2022/04/22 04:53:26;;;;;;;8.13;7.33;;;10.30;99.90;;;;;;5076480;28;20273;-83
2022/04/22 04:55:53;;;;;;;8.37;7.57;;;10.30;99.90;;;;;;5076102;28;20245;-83
2022/04/22 04:58:20;;;;;;;8.53;7.90;;;10.30;99.90;;;;;;5076020;28;20177;-83
2022/04/22 05:00:46;;;;;;;8.77;7.50;;;10.30;99.90;;;;;;5075907;28;20181;-83
2022/04/22 05:03:12;;;;;;;8.40;7.70;;;10.30;99.90;;;;;;5075978;28;20189;-82
2022/04/22 05:05:38;;;;;;;8.33;7.67;;;10.40;99.90;;;;;;5076148;28;20321;-83
2022/04/22 05:08:06;;;;;;;7.97;7.27;;;10.40;99.90;;;;;;5057579;28;20734;-82
2022/04/22 05:10:32;;;;;;;8.80;8.10;;;10.40;99.90;;;;;;5057442;28;20179;-83
2022/04/22 05:13:01;;;;;;;7.80;7.20;;;10.40;99.90;;;;;;5075584;28;20272;-82
2022/04/22 05:15:28;;;;;;;7.67;7.07;;;10.40;99.90;;;;;;5058065;28;20181;-82
2022/04/22 05:17:55;;;;;;;7.87;7.17;;;10.50;99.90;;;;;;5075844;28;20178;-83
2022/04/22 05:20:25;;;;;;;7.80;7.20;;;10.50;99.90;;;;;;5075286;28;20175;-83
2022/04/22 05:22:52;;;;;;;7.87;7.27;;;10.50;99.90;;;;;;5075636;28;20202;-83
2022/04/22 05:25:18;;;;;;;8.43;7.73;;;10.40;99.90;;;;;;5075633;28;20213;-83
2022/04/22 05:27:44;;;;;;;8.47;7.77;;;10.40;99.90;;;;;;5075647;28;20260;-83
2022/04/22 05:32:56;;;;;;;7.40;6.80;;;10.40;99.90;;;;;;5075747;28;20644;-83
2022/04/22 05:35:28;;;;;;;8.83;7.67;;;10.30;99.90;;;;;;5075393;28;20174;-82
2022/04/22 05:37:56;;;;;;;8.00;7.30;;;10.30;99.90;;;;;;5074931;28;20161;-82
2022/04/22 05:40:26;;;;;;;8.60;7.70;;;10.40;99.90;;;;;;5057058;28;20270;-83
2022/04/22 05:42:53;;;;;;;8.67;7.87;;;10.40;99.90;;;;;;5075519;28;20173;-82
2022/04/22 05:45:20;;;;;;;7.80;7.20;;;10.30;99.90;;;;;;5075457;28;20194;-83
2022/04/22 05:47:46;;;;;;;8.63;7.87;;;10.30;99.90;;;;;;5075999;28;20171;-82
2022/04/22 05:50:14;;;;;;;8.57;7.87;;;10.30;99.90;;;;;;5075307;28;20170;-82
2022/04/22 05:52:40;;;;;;;8.63;7.93;;;10.20;99.90;;;;;;5075081;28;20174;-83
2022/04/22 05:55:12;;;;;;;9.00;8.23;;;10.20;99.90;;;;;;5075370;28;20594;-83
2022/04/22 05:57:38;;;;;;;8.93;8.23;;;10.20;99.90;;;;;;5075490;28;20237;-83
2022/04/22 06:00:09;;;;;;;8.73;8.13;;;10.20;99.90;;;;;;5075079;28;20356;-83
2022/04/22 06:02:35;;;;;;;8.83;8.13;;;10.20;99.90;;;;;;5075026;28;20158;-83
2022/04/22 06:05:01;;;;;;;9.10;8.30;;;10.30;99.90;;;;;;5075413;28;20170;-84
2022/04/22 06:07:27;;;;;;;8.73;7.93;;;10.30;99.90;;;;;;5075535;28;20181;-84
2022/04/22 06:12:37;;;;;;;9.13;8.27;;;10.20;99.90;;;;;;5074895;28;20241;-84
2022/04/22 06:15:04;;;;;;;9.20;8.40;;;10.00;99.90;;;;;;5075107;28;20550;-84
2022/04/22 06:17:31;;;;;;;8.63;7.93;;;10.00;99.90;;;;;;5057151;28;20223;-84
2022/04/22 06:19:58;;;;;;;10.37;8.40;;;10.00;99.90;;;;;;5074707;28;20162;-83
2022/04/22 06:22:25;;;;;;;10.10;9.07;;;10.00;99.90;;;;;;5074838;28;20171;-83
2022/04/22 06:24:51;;;;;;;9.43;8.57;;;10.00;99.90;;;;;;5056897;28;20169;-82
2022/04/22 06:27:24;;;;;;;12.07;9.13;;;10.10;99.90;;;;;;5074849;28;20177;-83
2022/04/22 06:29:51;;;;;;;9.40;8.60;;;10.10;99.90;;;;;;5074680;28;20196;-83
2022/04/22 06:32:17;;;;;;;9.87;8.97;;;10.10;99.90;;;;;;5075156;28;20174;-83
2022/04/22 06:34:43;;;;;;;9.40;8.60;;;10.10;99.90;;;;;;5077364;28;20625;-83
2022/04/22 06:37:11;;;;;;;9.20;8.40;;;10.10;99.90;;;;;;5075420;28;20258;-84
2022/04/22 06:47:55;;;;;;;10.20;9.20;;;10.10;99.90;;;;;;5074468;28;20640;-83
2022/04/22 06:50:21;;;;;;;10.20;9.30;;;10.00;99.90;;;;;;5073178;28;20166;-82
2022/04/22 06:52:47;;;;;;;10.13;9.17;;;9.90;99.90;;;;;;5073817;28;20201;-83
2022/04/22 06:55:17;;;;;;;9.97;9.03;;;10.00;99.90;;;;;;5074085;28;20182;-83
2022/04/22 06:57:49;;;;;;;9.70;8.77;;;10.20;99.90;;;;;;5078573;28;20155;-82
2022/04/22 07:00:16;;;;;;;10.20;9.30;;;10.10;99.90;;;;;;5074888;28;20185;-83
2022/04/22 07:02:42;;;;;;;10.10;9.30;;;10.10;99.90;;;;;;5075144;28;20202;-83
2022/04/22 07:05:09;;;;;;;10.63;9.60;;;10.10;99.90;;;;;;5081382;28;20198;-82
2022/04/22 07:07:35;;;;;;;10.57;9.67;;;10.10;99.90;;;;;;5090043;28;20544;-81
2022/04/22 07:10:01;;;;;;;10.83;9.70;;;10.10;99.90;;;;;;5092812;28;20190;-81
2022/04/22 07:12:28;;;;;;;10.73;9.73;;;10.00;99.90;;;;;;5088108;28;20227;-82
2022/04/22 07:15:03;;;;;;;9.23;8.43;;;10.00;99.90;;;;;;5083754;28;20174;-83
2022/04/22 07:17:33;;;;;;;10.17;9.13;;;10.10;99.90;;;;;;5056670;28;20236;-81
2022/04/22 07:20:09;;;;;;;10.60;9.60;;;10.00;99.90;;;;;;5074450;28;20167;-83
2022/04/22 07:22:45;;;;;;;10.80;9.90;;;10.10;99.90;;;;;;5074301;28;20163;-83
2022/04/22 07:25:14;;;;;;;9.73;8.93;;;10.20;99.90;;;;;;5074741;28;20197;-82
2022/04/22 07:27:42;;;;;;;10.27;9.43;;;10.20;99.90;;;;;;5074467;28;20206;-82
2022/04/22 07:30:10;;;;;;;10.50;9.53;;;10.20;99.90;;;;;;5074225;28;20217;-83
2022/04/22 07:32:37;;;;;;;9.30;8.50;;;10.30;99.90;;;;;;5075076;28;20174;-84
2022/04/22 07:35:11;;;;;;;9.97;9.20;;;10.30;99.90;;;;;;5075546;28;20678;-84
2022/04/22 07:37:38;;;;;;;10.20;9.30;;;10.20;99.90;;;;;;5075990;28;20165;-84
2022/04/22 07:40:05;;;;;;;9.77;8.87;;;10.10;99.90;;;;;;5075646;28;20355;-84
2022/04/22 07:42:33;;;;;;;9.67;8.73;;;10.20;99.90;;;;;;5073228;28;20640;-83
2022/04/22 07:47:49;;;;;;;10.10;9.10;;;10.30;99.90;;;;;;5075356;28;20263;-84
2022/04/22 07:50:18;;;;;;;9.90;8.90;;;10.30;99.90;;;;;;5073671;28;20166;-84
2022/04/22 07:52:45;;;;;;;9.07;8.37;;;10.20;99.90;;;;;;5073599;28;20260;-83
2022/04/22 07:55:12;;;;;;;9.87;8.97;;;10.30;99.90;;;;;;5073090;28;20221;-84
2022/04/22 07:57:40;;;;;;;9.37;8.67;;;10.30;99.90;;;;;;5055221;28;20264;-83
2022/04/22 08:00:07;;;;;;;9.77;8.93;;;10.40;99.90;;;;;;5073130;28;20235;-84
2022/04/22 08:02:33;;;;;;;9.40;8.60;;;10.40;99.90;;;;;;5077454;28;20169;-83
2022/04/22 08:04:59;;;;;;;9.80;8.40;;;10.50;99.90;;;;;;5077070;28;20674;-83
2022/04/22 08:07:25;;;;;;;10.00;9.17;;;10.50;99.90;;;;;;5077223;28;20209;-83
2022/04/22 08:09:51;;;;;;;9.53;8.70;;;10.60;99.90;;;;;;5076463;28;20166;-85
2022/04/22 08:12:19;;;;;;;8.97;8.17;;;10.60;99.90;;;;;;5058230;28;20656;-84
2022/04/22 08:14:46;;;;;;;8.93;8.23;;;10.50;99.90;;;;;;5076812;28;20200;-84
2022/04/22 08:17:12;;;;;;;9.10;8.40;;;10.60;99.90;;;;;;5076856;28;20210;-84
2022/04/22 08:19:39;;;;;;;8.87;8.07;;;10.60;99.90;;;;;;5077368;28;20175;-84
2022/04/22 08:22:05;;;;;;;8.93;8.20;;;10.50;99.90;;;;;;5077234;28;20209;-84
2022/04/22 08:24:31;;;;;;;9.73;8.93;;;10.70;99.90;;;;;;5077149;28;20175;-84
2022/04/22 08:26:58;;;;;;;9.87;9.03;;;10.80;99.90;;;;;;5077145;28;20222;-84
2022/04/22 08:29:24;;;;;;;9.63;8.83;;;10.70;99.90;;;;;;5077047;28;20178;-84
2022/04/22 08:31:51;;;;;;;9.50;8.73;;;10.70;99.90;;;;;;5076782;28;20577;-84
2022/04/22 08:34:16;;;;;;;9.50;8.67;;;10.70;99.90;;;;;;5078844;28;20167;-84
2022/04/22 08:36:43;;;;;;;9.27;8.47;;;10.70;99.90;;;;;;5077185;28;20171;-84
2022/04/22 08:39:09;;;;;;;9.50;8.63;;;10.80;99.90;;;;;;5077876;28;20572;-84
2022/04/22 08:41:37;;;;;;;9.13;8.33;;;10.80;99.90;;;;;;5077308;28;20174;-84
2022/04/22 08:44:05;;;;;;;8.87;8.17;;;10.90;99.90;;;;;;5077919;28;20178;-84
2022/04/22 08:52:02;;;;;;;9.97;9.17;;;11.00;99.90;;;;;;5078886;28;20169;-83
2022/04/22 08:54:29;;;;;;;8.93;8.23;;;11.00;99.90;;;;;;5077598;28;20175;-82
2022/04/22 08:56:55;;;;;;;9.83;9.03;;;11.10;99.90;;;;;;5093513;28;20179;-82
2022/04/22 08:59:21;;;;;;;8.87;8.17;;;11.40;99.90;;;;;;5099375;28;20187;-84
2022/04/22 09:01:48;;;;;;;9.17;8.47;;;11.40;99.90;;;;;;5098768;28;20541;-85
2022/04/22 09:04:14;;;;;;;8.87;8.17;;;11.40;99.90;;;;;;5099727;28;20167;-85
2022/04/22 09:06:40;;;;;;;8.67;7.97;;;11.40;99.90;;;;;;5086753;28;20215;-85
2022/04/22 09:09:06;;;;;;;8.80;8.10;;;11.30;99.90;;;;;;5076616;28;20182;-84
2022/04/22 09:11:38;;;;;;;12.03;7.90;;;11.20;99.90;;;;;;5062629;28;20230;-88
2022/04/22 09:14:04;;;;;;;8.70;8.00;;;11.00;99.90;;;;;;5080316;28;20175;-85
2022/04/22 09:16:29;;;;;;;8.37;7.57;;;11.10;99.90;;;;;;5060003;28;20186;-88
2022/04/22 09:19:00;;;;;;;7.33;6.73;;;11.10;99.90;;;;;;5076263;28;20300;-87
2022/04/22 09:21:27;;;;;;;7.60;7.00;;;11.00;99.90;;;;;;5076414;28;20175;-84
2022/04/22 09:23:53;;;;;;;7.90;7.23;;;11.00;99.90;;;;;;5058311;28;20182;-86
2022/04/22 09:26:22;;;;;;;7.30;6.70;;;10.80;99.90;;;;;;5057996;28;20245;-86
2022/04/22 09:29:06;;;;;;;8.20;7.60;;;10.80;99.90;;;;;;5076191;28;20622;-87
2022/04/22 09:31:46;;;;;;;7.73;7.13;;;10.90;99.90;;;;;;5076719;28;20155;-85
2022/04/22 09:34:13;;;;;;;8.00;7.40;;;11.00;99.90;;;;;;5076126;28;20174;-86
2022/04/22 09:45:03;;;;;;;8.37;7.47;;;10.90;99.90;;;;;;5074796;28;20243;-86
2022/04/22 09:47:31;;;;;;;7.80;7.10;;;11.00;99.90;;;;;;5075765;28;20181;-87
2022/04/22 09:49:58;;;;;;;7.40;6.90;;;11.10;99.90;;;;;;5075859;28;20261;-86
2022/04/22 09:52:29;;;;;;;7.67;7.13;;;11.00;99.90;;;;;;5078419;28;20171;-86
2022/04/22 09:55:06;;;;;;;7.73;7.13;;;11.00;99.90;;;;;;5084988;28;20186;-86
2022/04/22 09:57:56;;;;;;;7.83;7.27;;;11.00;99.90;;;;;;5084183;28;20159;-84
2022/04/22 10:00:24;;;;;;;7.70;7.10;;;11.00;99.90;;;;;;5081363;28;20166;-86
2022/04/22 10:02:51;;;;;;;8.63;7.83;;;11.00;99.90;;;;;;5076125;28;20172;-86
2022/04/22 10:05:22;;;;;;;7.87;7.17;;;11.00;99.90;;;;;;5075645;28;20194;-85
2022/04/22 10:07:52;;;;;;;7.93;7.33;;;11.10;99.90;;;;;;5075895;28;20167;-85
2022/04/22 10:10:23;;;;;;;8.80;8.10;;;11.10;99.90;;;;;;5075427;28;20168;-85
2022/04/22 10:12:52;;;;;;;8.50;7.90;;;11.10;99.90;;;;;;5075401;28;20249;-85
2022/04/22 10:15:19;;;;;;;7.77;7.17;;;11.00;99.90;;;;;;5075256;28;20224;-85
2022/04/22 10:17:47;;;;;;;7.90;7.30;;;11.00;99.90;;;;;;5071675;28;20245;-85
2022/04/22 10:20:12;;;;;;;7.90;7.30;;;11.00;99.90;;;;;;5078593;28;20955;-84
2022/04/22 10:22:39;;;;;;;7.53;7.03;;;10.90;99.90;;;;;;5084080;28;20209;-84
2022/04/22 10:25:07;;;;;;;7.53;6.93;;;10.90;99.90;;;;;;5082160;28;20227;-84
2022/04/22 10:27:40;;;;;;;7.93;7.33;;;10.90;99.90;;;;;;5091616;28;20589;-84
2022/04/22 10:30:09;;;;;;;8.47;7.63;;;10.90;99.90;;;;;;5091355;28;20177;-83
2022/04/22 10:32:35;;;;;;;7.87;7.37;;;10.90;99.90;;;;;;5058603;28;20273;-82
2022/04/22 10:35:03;;;;;;;7.53;6.93;;;10.90;99.90;;;;;;5071242;28;20804;-83
2022/04/22 10:37:29;;;;;;;7.77;7.17;;;11.10;99.90;;;;;;5053327;28;20646;-82
2022/04/22 10:39:56;;;;;;;7.77;7.27;;;11.00;99.90;;;;;;5071131;28;20233;-83
2022/04/22 10:42:38;;;;;;;7.37;6.77;;;11.00;99.90;;;;;;5072851;28;20179;-85
2022/04/22 10:47:53;;;;;;;7.67;7.07;;;11.00;99.90;;;;;;5095252;28;20657;-83
2022/04/22 10:50:29;;;;;;;7.37;6.83;;;11.10;99.90;;;;;;5107588;28;20179;-83
2022/04/22 10:53:17;;;;;;;7.13;6.63;;;11.00;99.90;;;;;;5084237;28;20182;-84
2022/04/22 10:55:43;;;;;;;8.07;7.37;;;10.90;99.90;;;;;;5083502;28;20252;-85
2022/04/22 10:58:21;;;;;;;8.20;7.57;;;10.90;99.90;;;;;;5085559;28;20266;-85
2022/04/22 11:00:57;;;;;;;8.03;7.43;;;10.90;99.90;;;;;;5061943;28;20194;-84
2022/04/22 11:03:31;;;;;;;7.80;7.17;;;10.80;99.90;;;;;;5080497;28;20204;-85
2022/04/22 11:06:07;;;;;;;7.90;7.30;;;10.90;99.90;;;;;;5077836;28;20248;-85
2022/04/22 11:08:37;;;;;;;8.30;7.60;;;11.00;99.90;;;;;;5065072;28;20174;-85
2022/04/22 11:11:09;;;;;;;8.37;7.67;;;10.90;99.90;;;;;;5086311;28;20226;-86
2022/04/22 11:13:40;;;;;;;9.33;8.53;;;10.80;99.90;;;;;;5092235;28;20175;-85
2022/04/22 11:16:32;;;;;;;8.53;7.87;;;10.90;99.90;;;;;;5090527;28;20267;-84
2022/04/22 11:19:20;;;;;;;8.33;7.53;;;10.90;99.90;;;;;;5072392;28;20174;-83
2022/04/22 11:21:53;;;;;;;8.43;7.83;;;10.90;99.90;;;;;;5087597;28;20253;-86
2022/04/22 11:24:34;;;;;;;8.47;7.73;;;10.90;99.90;;;;;;5094017;28;20549;-86
2022/04/22 11:27:14;;;;;;;7.83;7.23;;;11.00;99.90;;;;;;5093783;28;20703;-86
2022/04/22 11:29:41;;;;;;;8.07;7.47;;;11.00;99.90;;;;;;5075847;28;20163;-85
2022/04/22 11:32:21;;;;;;;8.40;7.70;;;11.10;99.90;;;;;;5094040;28;20224;-88
2022/04/22 11:35:13;;;;;;;8.17;7.57;;;11.10;99.90;;;;;;5094009;28;20190;-87
2022/04/22 11:37:39;;;;;;;8.37;7.63;;;11.10;99.90;;;;;;5094064;28;20190;-82
2022/04/22 11:40:08;;;;;;;8.20;7.60;;;11.20;99.90;;;;;;5075534;28;20174;-90
2022/04/22 11:42:44;;;;;;;7.97;7.33;;;11.20;99.90;;;;;;5094560;28;20335;-87
2022/04/22 11:45:15;;;;;;;11.80;7.90;;;11.10;99.90;;;;;;5094401;28;20233;-89
2022/04/22 11:47:42;;;;;;;8.50;7.80;;;11.10;99.90;;;;;;5095061;28;20192;-89
2022/04/22 11:50:09;;;;;;;8.53;7.83;;;11.10;99.90;;;;;;5093970;28;20246;-87
2022/04/22 11:52:35;;;;;;;8.67;7.83;;;11.10;99.90;;;;;;5077286;28;20210;-86
2022/04/22 11:57:13;;;;;;;8.77;8.07;;;11.20;99.90;;;;;;5148961;27;20577;-90
2022/04/22 11:59:39;;;;;;;8.20;7.60;;;11.20;99.90;;;;;;5131122;28;20243;-86
2022/04/22 12:10:27;;;;;;;8.10;7.40;;;11.20;99.90;;;;;;5110747;28;20173;-85
2022/04/22 12:12:56;;;;;;;7.80;7.10;;;11.20;99.90;;;;;;5111682;28;20173;-84
2022/04/22 12:15:22;;;;;;;7.93;7.33;;;11.20;99.90;;;;;;5107871;28;20239;-84
2022/04/22 12:17:48;;;;;;;7.87;7.27;;;11.10;99.90;;;;;;5111407;28;20205;-85
2022/04/22 12:20:14;;;;;;;7.60;7.10;;;11.10;99.90;;;;;;5110173;28;20205;-84
2022/04/22 12:22:40;;;;;;;8.33;7.73;;;11.10;99.90;;;;;;5109657;28;20178;-85
2022/04/22 12:25:16;;;;;;;7.87;7.30;;;11.10;99.90;;;;;;5111247;28;20180;-83
2022/04/22 12:27:43;;;;;;;7.90;7.30;;;11.10;99.90;;;;;;5110152;28;20157;-83
2022/04/22 12:30:11;;;;;;;8.43;7.73;;;11.10;99.90;;;;;;5110757;28;20189;-84
2022/04/22 12:32:41;;;;;;;8.40;7.70;;;11.20;99.90;;;;;;5110722;28;20580;-83
2022/04/22 12:35:13;;;;;;;8.30;7.50;;;11.20;99.90;;;;;;5110964;28;20197;-83
2022/04/22 12:37:50;;;;;;;8.33;7.63;;;11.20;99.90;;;;;;5111453;28;20170;-84
2022/04/22 12:40:22;;;;;;;8.17;7.47;;;11.20;99.90;;;;;;5122681;28;20192;-86
2022/04/22 12:42:49;;;;;;;7.80;7.27;;;11.20;99.90;;;;;;5124742;28;20177;-83
2022/04/22 12:53:49;;;;;;;8.87;8.20;;;11.40;99.90;;;;;;5110741;28;20524;-84
2022/04/22 12:56:15;;;;;;;9.47;8.60;;;11.40;99.90;;;;;;5100772;28;20764;-81
2022/04/22 12:58:57;;;;;;;8.83;8.23;;;11.50;99.90;;;;;;5126164;28;20253;-84
2022/04/22 13:01:46;;;;;;;10.10;9.20;;;11.50;99.90;;;;;;5127574;27;20536;-84
2022/04/22 13:04:26;;;;;;;9.77;8.97;;;11.60;99.90;;;;;;5128924;28;20172;-82
2022/04/22 13:06:52;;;;;;;9.93;9.13;;;11.60;99.90;;;;;;5125971;28;20163;-83
2022/04/22 13:09:19;;;;;;;10.43;9.63;;;11.50;99.90;;;;;;5116399;28;20249;-82
2022/04/22 13:11:46;;;;;;;11.17;10.17;;;11.40;99.90;;;;;;5116905;28;20172;-82
2022/04/22 13:14:12;;;;;;;14.03;11.17;;;11.40;99.90;;;;;;5116120;28;20187;-82
2022/04/22 13:16:38;;;;;;;11.57;10.47;;;11.40;99.90;;;;;;5115206;28;20347;-81
2022/04/22 13:19:04;;;;;;;11.53;10.53;;;11.40;99.90;;;;;;5114962;28;20651;-82
2022/04/22 13:21:30;;;;;;;11.47;10.47;;;11.30;99.90;;;;;;5115399;28;20198;-82
2022/04/22 13:23:56;;;;;;;10.73;9.77;;;11.30;99.90;;;;;;5116132;28;20181;-81
2022/04/22 13:26:24;;;;;;;10.70;9.87;;;11.30;99.90;;;;;;5116606;28;20214;-84
2022/04/22 13:28:50;;;;;;;10.67;9.57;;;11.40;99.90;;;;;;5116074;28;20172;-82
2022/04/22 13:31:17;;;;;;;10.43;9.60;;;11.40;99.90;;;;;;5116324;28;20233;-84
2022/04/22 13:33:43;;;;;;;10.13;9.23;;;11.40;99.90;;;;;;5115899;28;20633;-85
2022/04/22 13:36:10;;;;;;;10.37;9.47;;;11.50;99.90;;;;;;5115883;28;20251;-83
2022/04/22 13:38:37;;;;;;;10.30;9.27;;;11.50;99.90;;;;;;5115841;28;20168;-84
2022/04/22 13:41:06;;;;;;;10.87;9.87;;;11.50;99.90;;;;;;5116013;28;20174;-84
2022/04/22 13:43:33;;;;;;;10.90;9.90;;;11.50;99.90;;;;;;5113414;28;20270;-83
